Time,TemperatureF,DewpointF,PressureIn,WindDirection,WindDirectionDegrees,WindSpeedMPH,WindSpeedGustMPH,Humidity,HourlyPrecipIn,Conditions,Clouds,dailyrainin,SoftwareType,DateUTC
2013-09-24 00:13:00,61.0,56.0,29.88,NW,314,0.0,0.0,85,0.00,,,0.00,,2013-09-24 05:13:00,
2013-09-24 00:23:00,61.0,56.0,29.88,NW,314,0.0,0.0,85,0.00,,,0.00,,2013-09-24 05:23:00,
2013-09-24 00:53:00,60.0,56.0,29.88,NW,314,0.0,0.0,86,0.00,,,0.00,,2013-09-24 05:53:00,
2013-09-24 01:12:00,60.0,56.0,29.88,NW,314,0.0,0.0,87,0.00,,,0.00,,2013-09-24 06:12:00,
2013-09-24 01:22:00,60.0,56.0,29.88,NW,314,0.0,0.0,88,0.00,,,0.00,,2013-09-24 06:22:00,
2013-09-24 01:42:00,60.0,56.0,29.89,NW,314,0.0,0.0,88,0.00,,,0.00,,2013-09-24 06:42:00,
2013-09-24 01:52:00,59.0,55.0,29.89,NW,314,0.0,0.0,88,0.00,,,0.00,,2013-09-24 06:52:00,
2013-09-24 02:12:00,59.0,55.0,29.89,NW,314,0.0,0.0,88,0.00,,,0.00,,2013-09-24 07:12:00,
2013-09-24 02:22:00,59.0,55.0,29.89,NW,314,0.0,0.0,88,0.00,,,0.00,,2013-09-24 07:22:00,
2013-09-24 02:52:00,58.0,54.0,29.88,NW,312,0.0,0.0,88,0.00,,,0.00,,2013-09-24 07:52:00,
2013-09-24 03:11:00,58.0,55.0,29.88,NW,312,0.0,0.0,89,0.00,,,0.00,,2013-09-24 08:11:00,
2013-09-24 03:22:00,58.0,55.0,29.87,NW,311,0.0,0.0,90,0.00,,,0.00,,2013-09-24 08:22:00,
2013-09-24 03:42:00,58.0,55.0,29.88,NW,311,0.0,0.0,90,0.00,,,0.00,,2013-09-24 08:42:00,
2013-09-24 03:52:00,58.0,55.0,29.87,NW,311,0.0,0.0,90,0.00,,,0.00,,2013-09-24 08:52:00,
2013-09-24 04:12:00,58.0,55.0,29.87,NW,311,0.0,0.0,90,0.00,,,0.00,,2013-09-24 09:12:00,
2013-09-24 04:21:00,58.0,55.0,29.87,NW,311,0.0,0.0,91,0.00,,,0.00,,2013-09-24 09:21:00,
2013-09-24 04:43:00,59.0,57.0,29.87,NW,312,0.0,0.0,92,0.00,,,0.00,,2013-09-24 09:43:00,
2013-09-24 04:54:00,59.0,57.0,29.86,NW,312,0.0,0.0,93,0.00,,,0.00,,2013-09-24 09:54:00,
2013-09-24 05:23:00,59.0,57.0,29.86,NW,312,0.0,0.0,93,0.00,,,0.00,,2013-09-24 10:23:00,
2013-09-24 05:53:00,59.0,57.0,29.86,NW,312,0.0,0.0,94,0.00,,,0.00,,2013-09-24 10:53:00,
2013-09-24 06:22:00,58.0,56.0,29.85,NW,312,0.0,0.0,93,0.00,,,0.00,,2013-09-24 11:22:00,
2013-09-24 06:52:00,58.0,56.0,29.85,NW,311,0.0,0.0,93,0.00,,,0.00,,2013-09-24 11:52:00,
2013-09-24 07:12:00,58.0,56.0,29.85,NW,314,0.0,0.0,93,0.00,,,0.00,,2013-09-24 12:12:00,
2013-09-24 07:22:00,58.0,56.0,29.85,NW,314,0.0,0.0,93,0.00,,,0.00,,2013-09-24 12:22:00,
2013-09-24 07:42:00,57.0,55.0,29.85,NW,314,0.0,0.0,93,0.00,,,0.00,,2013-09-24 12:42:00,
2013-09-24 07:52:00,57.0,55.0,29.85,NW,314,0.0,0.0,93,0.00,,,0.00,,2013-09-24 12:52:00,
2013-09-24 08:11:00,57.0,55.0,29.85,NW,314,0.0,0.0,93,0.00,,,0.00,,2013-09-24 13:11:00,
2013-09-24 08:22:00,57.0,55.0,29.85,NW,314,0.0,0.0,94,0.00,,,0.00,,2013-09-24 13:22:00,
2013-09-24 08:52:00,58.0,57.0,29.85,NW,314,0.0,0.0,95,0.00,,,0.00,,2013-09-24 13:52:00,
2013-09-24 09:12:00,59.0,58.0,29.85,NW,314,0.0,0.0,96,0.00,,,0.00,,2013-09-24 14:12:00,
2013-09-24 09:21:00,60.0,59.0,29.85,NW,314,0.0,0.0,96,0.00,,,0.00,,2013-09-24 14:21:00,
2013-09-24 09:52:00,62.0,61.0,29.84,NW,314,0.0,0.0,97,0.00,,,0.00,,2013-09-24 14:52:00,
2013-09-24 10:22:00,64.0,63.0,29.84,NW,314,0.0,0.0,96,0.00,,,0.00,,2013-09-24 15:22:00,
2013-09-24 10:43:00,65.0,64.0,29.84,NW,315,0.0,0.0,95,0.00,,,0.00,,2013-09-24 15:43:00,
2013-09-24 10:54:00,66.0,63.0,29.84,NW,315,0.0,0.0,90,0.00,,,0.00,,2013-09-24 15:54:00,
2013-09-24 11:13:00,68.0,63.0,29.84,NW,315,0.0,0.0,83,0.00,,,0.00,,2013-09-24 16:13:00,
2013-09-24 11:23:00,69.0,62.0,29.84,NW,314,0.0,0.0,79,0.00,,,0.00,,2013-09-24 16:23:00,
2013-09-24 11:43:00,70.0,62.0,29.83,NW,315,0.0,0.0,76,0.00,,,0.00,,2013-09-24 16:43:00,
2013-09-24 11:53:00,71.0,63.0,29.83,NW,315,0.0,0.0,75,0.00,,,0.00,,2013-09-24 16:53:00,
2013-09-24 12:13:00,72.0,62.0,29.83,NW,315,0.0,1.0,72,0.00,,,0.00,,2013-09-24 17:13:00,
2013-09-24 12:23:00,74.0,64.0,29.82,NW,315,0.0,0.0,70,0.00,,,0.00,,2013-09-24 17:23:00,
2013-09-24 12:54:00,76.0,63.0,29.82,NW,315,0.0,0.0,64,0.00,,,0.00,,2013-09-24 17:54:00,
2013-09-24 13:22:00,77.0,63.0,29.80,NW,315,0.0,0.0,61,0.00,,,0.00,,2013-09-24 18:22:00,
2013-09-24 13:52:00,79.0,63.0,29.80,NW,315,0.0,0.0,58,0.00,,,0.00,,2013-09-24 18:52:00,
2013-09-24 14:11:00,80.0,63.0,29.79,NW,315,0.0,0.0,56,0.00,,,0.00,,2013-09-24 19:11:00,
2013-09-24 14:22:00,80.0,62.0,29.79,NW,315,0.0,0.0,55,0.00,,,0.00,,2013-09-24 19:22:00,
2013-09-24 14:52:00,81.0,64.0,29.78,NW,315,0.0,0.0,57,0.00,,,0.00,,2013-09-24 19:52:00,
2013-09-24 15:11:00,81.0,64.0,29.78,NW,314,0.0,0.0,56,0.00,,,0.00,,2013-09-24 20:11:00,
2013-09-24 15:22:00,81.0,64.0,29.78,NW,314,0.0,0.0,56,0.00,,,0.00,,2013-09-24 20:22:00,
2013-09-24 15:52:00,81.0,63.0,29.76,NW,313,0.0,0.0,55,0.00,,,0.00,,2013-09-24 20:52:00,
2013-09-24 16:22:00,83.0,64.0,29.75,NW,314,0.0,0.0,53,0.00,,,0.00,,2013-09-24 21:22:00,
2013-09-24 16:43:00,84.0,64.0,29.76,NW,314,0.0,0.0,51,0.00,,,0.00,,2013-09-24 21:43:00,
2013-09-24 16:54:00,85.0,64.0,29.75,NW,314,0.0,0.0,49,0.00,,,0.00,,2013-09-24 21:54:00,
2013-09-24 17:23:00,86.0,63.0,29.75,NW,314,0.0,0.0,46,0.00,,,0.00,,2013-09-24 22:23:00,
2013-09-24 17:53:00,87.0,61.0,29.75,NW,314,0.0,0.0,42,0.00,,,0.00,,2013-09-24 22:53:00,
2013-09-24 18:22:00,86.0,60.0,29.75,NW,314,0.0,0.0,41,0.00,,,0.00,,2013-09-24 23:22:00,
2013-09-24 18:53:00,83.0,59.0,29.76,NW,319,0.0,0.0,44,0.00,,,0.00,,2013-09-24 23:53:00,
2013-09-24 19:12:00,81.0,58.0,29.76,NW,319,0.0,0.0,46,0.00,,,0.00,,2013-09-25 00:12:00,
2013-09-24 19:22:00,80.0,59.0,29.76,NW,319,0.0,0.0,49,0.00,,,0.00,,2013-09-25 00:22:00,
2013-09-24 19:42:00,79.0,60.0,29.76,NW,314,0.0,0.0,52,0.00,,,0.00,,2013-09-25 00:42:00,
2013-09-24 19:52:00,78.0,59.0,29.77,NW,314,0.0,0.0,53,0.00,,,0.00,,2013-09-25 00:52:00,
2013-09-24 20:12:00,77.0,60.0,29.78,NW,317,0.0,0.0,55,0.00,,,0.00,,2013-09-25 01:12:00,
2013-09-24 20:21:00,76.0,60.0,29.78,NW,317,0.0,0.0,58,0.00,,,0.00,,2013-09-25 01:21:00,
2013-09-24 20:42:00,75.0,60.0,29.78,NW,316,0.0,0.0,59,0.00,,,0.00,,2013-09-25 01:42:00,
2013-09-24 20:52:00,74.0,59.0,29.78,NW,316,0.0,0.0,60,0.00,,,0.00,,2013-09-25 01:52:00,
2013-09-24 21:12:00,74.0,60.0,29.78,NW,316,0.0,0.0,62,0.00,,,0.00,,2013-09-25 02:12:00,
2013-09-24 21:22:00,73.0,60.0,29.79,NW,316,0.0,0.0,63,0.00,,,0.00,,2013-09-25 02:22:00,
2013-09-24 21:42:00,72.0,59.0,29.79,NW,316,0.0,0.0,64,0.00,,,0.00,,2013-09-25 02:42:00,
2013-09-24 21:52:00,72.0,60.0,29.79,NW,316,0.0,0.0,66,0.00,,,0.00,,2013-09-25 02:52:00,
2013-09-24 22:23:00,71.0,60.0,29.79,NW,316,0.0,0.0,69,0.00,,,0.00,,2013-09-25 03:23:00,
2013-09-24 22:45:00,70.0,60.0,29.79,NW,316,0.0,0.0,71,0.00,,,0.00,,2013-09-25 03:45:00,
2013-09-24 22:54:00,69.0,60.0,29.79,NW,316,0.0,0.0,72,0.00,,,0.00,,2013-09-25 03:54:00,
2013-09-24 23:14:00,68.0,59.0,29.79,NW,316,0.0,0.0,74,0.00,,,0.00,,2013-09-25 04:14:00,
2013-09-24 23:24:00,67.0,59.0,29.79,NW,316,0.0,0.0,76,0.00,,,0.00,,2013-09-25 04:24:00,
2013-09-24 23:54:00,66.0,59.0,29.79,NW,316,0.0,0.0,78,0.00,,,0.00,,2013-09-25 04:54:00,